Time;durP1;ratioP1;P1;durP2;ratioP2;P2;SDS_P1;SDS_P2;PMS_P1;PMS_P2;Temp;Humidity;BMP_temperature;BMP_pressure;BME280_temperature;BME280_humidity;BME280_pressure;Samples;Min_cycle;Max_cycle;Signal;HPM_P1;HPM_P2
2022/07/21 00:00:06;;;;;;;;;;;;;;;27.71;41.45;100195.50;2063560;28;19949;-68
2022/07/21 00:01:06;;;;;;;;;;;;;;;27.71;41.80;100201.88;2066353;28;19924;-68
2022/07/21 00:02:07;;;;;;;;;;;;;;;27.70;41.50;100197.38;2068307;28;19921;-68
2022/07/21 00:03:07;;;;;;;;;;;;;;;27.69;41.53;100195.69;2056877;28;21297;-69
2022/07/21 00:04:07;;;;;;;;;;;;;;;27.69;41.63;100198.44;2066851;28;19959;-68
2022/07/21 00:05:08;;;;;;;;;;;;;;;27.69;41.60;100195.69;2063970;28;20897;-69
2022/07/21 00:06:08;;;;;;;;;;;;;;;27.69;41.61;100192.91;2068418;28;19948;-68
2022/07/21 00:07:08;;;;;;;;;;;;;;;27.69;41.57;100201.22;2068384;28;19944;-68
2022/07/21 00:08:09;;;;;;;;;;;;;;;27.69;41.59;100195.69;2069299;28;21074;-68
2022/07/21 00:09:10;;;;;;;;;;;;;;;27.69;41.63;100194.84;2066953;28;20390;-68
2022/07/21 00:10:10;;;;;;;;;;;;;;;27.69;41.50;100201.22;2070681;28;20395;-68
2022/07/21 00:11:10;;;;;;;;;;;;;;;27.69;41.56;100197.59;2067802;28;20721;-68
2022/07/21 00:12:11;;;;;;;;;;;;;;;27.68;41.65;100193.94;2064127;28;19917;-68
2022/07/21 00:13:11;;;;;;;;;;;;;;;27.68;41.64;100198.63;2064665;28;19917;-68
2022/07/21 00:14:12;;;;;;;;;;;;;;;27.68;41.71;100193.09;2063285;28;19936;-68
2022/07/21 00:15:13;;;;;;;;;;;;;;;27.68;41.76;100199.50;2067049;28;19959;-68
2022/07/21 00:16:13;;;;;;;;;;;;;;;27.69;41.57;100198.44;2067459;28;19917;-69
2022/07/21 00:17:14;;;;;;;;;;;;;;;27.67;41.69;100200.56;2068669;28;19913;-69
2022/07/21 00:18:14;;;;;;;;;;;;;;;27.69;41.49;100194.84;2065050;28;19914;-68
2022/07/21 00:19:15;;;;;;;;;;;;;;;27.69;41.79;100197.59;2068291;28;19913;-68
2022/07/21 00:20:16;;;;;;;;;;;;;;;27.68;41.67;100196.72;2066565;28;19909;-68
2022/07/21 00:21:16;;;;;;;;;;;;;;;27.68;41.59;100191.19;2065337;28;20666;-69
2022/07/21 00:22:16;;;;;;;;;;;;;;;27.69;41.53;100195.69;2068766;28;19928;-69
2022/07/21 00:23:17;;;;;;;;;;;;;;;27.69;41.63;100190.13;2068724;28;19953;-68
2022/07/21 00:24:17;;;;;;;;;;;;;;;27.68;41.79;100191.19;2073504;28;19982;-68
2022/07/21 00:25:17;;;;;;;;;;;;;;;27.68;41.73;100193.94;2064509;28;19987;-68
2022/07/21 00:26:18;;;;;;;;;;;;;;;27.69;41.64;100195.69;2070399;28;19916;-69
2022/07/21 00:27:18;;;;;;;;;;;;;;;27.68;41.61;100193.94;2065341;28;19917;-68
2022/07/21 00:28:18;;;;;;;;;;;;;;;27.68;41.67;100193.94;2070942;28;19943;-68
2022/07/21 00:29:19;;;;;;;;;;;;;;;27.69;41.68;100192.91;2074224;28;19924;-68
2022/07/21 00:30:19;;;;;;;;;;;;;;;27.68;41.71;100191.19;2065494;28;19945;-68
2022/07/21 00:31:19;;;;;;;;;;;;;;;27.68;41.59;100184.78;2063681;28;19921;-68
2022/07/21 00:32:20;;;;;;;;;;;;;;;27.69;41.67;100200.38;2068546;28;19909;-68
2022/07/21 00:33:20;;;;;;;;;;;;;;;27.68;41.65;100184.78;2063055;28;20369;-68
2022/07/21 00:34:20;;;;;;;;;;;;;;;27.69;41.66;100194.84;2067212;28;19916;-68
2022/07/21 00:35:21;;;;;;;;;;;;;;;27.67;41.67;100186.72;2071416;28;19928;-68
2022/07/21 00:36:22;;;;;;;;;;;;;;;27.68;41.83;100185.66;2062067;28;20011;-69
2022/07/21 00:37:23;;;;;;;;;;;;;;;27.68;41.66;100185.66;2064164;28;19925;-68
2022/07/21 00:38:24;;;;;;;;;;;;;;;27.67;41.79;100186.72;2062359;28;19924;-68
2022/07/21 00:39:24;;;;;;;;;;;;;;;27.68;41.83;100182.88;2066907;28;19927;-68
2022/07/21 00:40:24;;;;;;;;;;;;;;;27.68;41.53;100187.56;2066281;28;19917;-68
2022/07/21 00:41:25;;;;;;;;;;;;;;;27.67;41.66;100189.50;2067516;28;19917;-68
2022/07/21 00:42:27;;;;;;;;;;;;;;;27.68;41.46;100191.19;2069371;28;19921;-68
2022/07/21 00:43:27;;;;;;;;;;;;;;;27.68;41.64;100188.41;2066960;28;20041;-68
2022/07/21 00:44:27;;;;;;;;;;;;;;;27.67;41.82;100178.41;2062265;28;19924;-68
2022/07/21 00:45:28;;;;;;;;;;;;;;;27.67;41.65;100180.34;2064786;28;19924;-68
2022/07/21 00:46:28;;;;;;;;;;;;;;;27.67;41.65;100185.88;2060870;28;20011;-68
2022/07/21 00:47:29;;;;;;;;;;;;;;;27.67;41.74;100186.72;2067985;28;19917;-68
2022/07/21 00:48:29;;;;;;;;;;;;;;;27.64;41.88;100181.59;2064999;28;19917;-68
2022/07/21 00:49:30;;;;;;;;;;;;;;;27.64;41.73;100187.13;2067118;28;19982;-68
2022/07/21 00:50:31;;;;;;;;;;;;;;;27.64;41.73;100181.59;2066484;28;19917;-68
2022/07/21 00:51:32;;;;;;;;;;;;;;;27.64;41.64;100178.81;2070653;28;19986;-69
2022/07/21 00:52:32;;;;;;;;;;;;;;;27.64;41.81;100192.66;2080199;28;19982;-68
2022/07/21 00:53:32;;;;;;;;;;;;;;;27.63;41.85;100184.56;2068247;28;19917;-68
2022/07/21 00:54:33;;;;;;;;;;;;;;;27.63;41.69;100179.88;2065526;28;19917;-68
2022/07/21 00:55:33;;;;;;;;;;;;;;;27.63;41.69;100181.78;2058580;28;19939;-68
2022/07/21 00:56:33;;;;;;;;;;;;;;;27.62;41.75;100183.72;2066955;28;20471;-68
2022/07/21 00:57:34;;;;;;;;;;;;;;;27.62;41.94;100177.31;2062726;28;20064;-68
2022/07/21 00:58:34;;;;;;;;;;;;;;;27.61;41.87;100170.94;2065972;28;19913;-68
2022/07/21 00:59:34;;;;;;;;;;;;;;;27.62;41.68;100177.31;2073660;28;19964;-68
2022/07/21 01:00:35;;;;;;;;;;;;;;;27.62;41.71;100175.41;2067445;28;19917;-68
2022/07/21 01:01:35;;;;;;;;;;;;;;;27.62;41.92;100177.31;2067229;28;19968;-68
2022/07/21 01:02:36;;;;;;;;;;;;;;;27.62;41.74;100172.63;2066738;28;19917;-68
2022/07/21 01:03:37;;;;;;;;;;;;;;;27.62;41.72;100172.63;2067608;28;20016;-68
2022/07/21 01:04:38;;;;;;;;;;;;;;;27.61;41.77;100170.94;2061430;28;20612;-68
2022/07/21 01:05:38;;;;;;;;;;;;;;;27.63;41.77;100173.47;2064842;28;19917;-68
2022/07/21 01:06:39;;;;;;;;;;;;;;;27.64;41.81;100169.66;2066277;28;20386;-68
2022/07/21 01:07:39;;;;;;;;;;;;;;;27.62;41.74;100178.16;2057803;28;19928;-68
2022/07/21 01:08:40;;;;;;;;;;;;;;;27.63;41.68;100171.56;2065438;28;19925;-68
2022/07/21 01:09:40;;;;;;;;;;;;;;;27.63;41.69;100174.31;2063212;28;19936;-68
2022/07/21 01:10:41;;;;;;;;;;;;;;;27.64;41.63;100180.75;2059528;28;20327;-68
2022/07/21 01:11:41;;;;;;;;;;;;;;;27.63;41.62;100174.31;2062703;28;20379;-68
2022/07/21 01:12:42;;;;;;;;;;;;;;;27.65;41.64;100176.91;2065048;28;20735;-68
2022/07/21 01:13:43;;;;;;;;;;;;;;;27.63;41.68;100174.31;2074997;28;19916;-68
2022/07/21 01:14:43;;;;;;;;;;;;;;;27.64;41.71;100170.53;2070006;28;20074;-69
2022/07/21 01:15:44;;;;;;;;;;;;;;;27.64;41.87;100172.44;2066813;28;19924;-69
2022/07/21 01:16:44;;;;;;;;;;;;;;;27.64;41.78;100169.66;2065468;28;19952;-69
2022/07/21 01:17:45;;;;;;;;;;;;;;;27.63;41.78;100174.31;2061644;28;19971;-68
2022/07/21 01:18:45;;;;;;;;;;;;;;;27.63;41.70;100174.31;2066107;28;19924;-68
2022/07/21 01:19:45;;;;;;;;;;;;;;;27.63;41.89;100179.88;2064470;28;19909;-68
2022/07/21 01:20:51;;;;;;;;;;;;;;;27.64;41.82;100178.81;2064411;28;19917;-65
2022/07/21 01:21:52;;;;;;;;;;;;;;;27.64;41.88;100172.44;2066472;28;19913;-65
2022/07/21 01:22:54;;;;;;;;;;;;;;;27.63;41.83;100185.41;2065587;28;19990;-65
2022/07/21 01:23:54;;;;;;;;;;;;;;;27.62;41.85;100178.16;2064850;28;20012;-65
2022/07/21 01:24:54;;;;;;;;;;;;;;;27.62;42.03;100175.41;2068096;28;20649;-65
2022/07/21 01:25:55;;;;;;;;;;;;;;;27.61;41.84;100173.72;2066040;28;19956;-65
2022/07/21 01:26:55;;;;;;;;;;;;;;;27.61;41.97;100176.47;2068194;28;19909;-64
2022/07/21 01:27:55;;;;;;;;;;;;;;;27.62;41.82;100171.78;2064341;28;19990;-65
2022/07/21 01:28:56;;;;;;;;;;;;;;;27.61;41.86;100170.94;2059838;28;19955;-64
2022/07/21 01:29:57;;;;;;;;;;;;;;;27.61;41.88;100181.13;2068618;28;19917;-65
2022/07/21 01:30:57;;;;;;;;;;;;;;;27.62;42.01;100174.56;2064895;28;19955;-65
2022/07/21 01:31:57;;;;;;;;;;;;;;;27.61;41.68;100170.94;2068626;28;19921;-65
2022/07/21 01:32:58;;;;;;;;;;;;;;;27.61;41.83;100181.13;2065740;28;20078;-65
2022/07/21 01:33:58;;;;;;;;;;;;;;;27.59;41.78;100173.06;2062694;28;20382;-65
2022/07/21 01:34:58;;;;;;;;;;;;;;;27.60;42.02;100173.91;2066687;28;20061;-65
2022/07/21 01:35:59;;;;;;;;;;;;;;;27.59;41.95;100175.81;2066635;28;19940;-65
2022/07/21 01:36:59;;;;;;;;;;;;;;;27.59;41.80;100173.06;2066201;28;19917;-65
2022/07/21 01:38:00;;;;;;;;;;;;;;;27.59;41.84;100178.59;2072687;28;19943;-65
2022/07/21 01:41:38;;;;;;;;;;;;;;;27.57;41.92;100166.84;2066327;28;20012;-65
2022/07/21 01:42:38;;;;;;;;;;;;;;;27.58;41.78;100171.31;2071442;28;19913;-65
2022/07/21 01:43:39;;;;;;;;;;;;;;;27.56;41.86;100168.78;2063866;28;19948;-65
2022/07/21 01:44:39;;;;;;;;;;;;;;;27.56;41.94;100170.66;2068104;28;20014;-65
2022/07/21 01:45:40;;;;;;;;;;;;;;;27.56;41.80;100167.91;2072616;28;19917;-64
2022/07/21 01:46:43;;;;;;;;;;;;;;;27.55;41.97;100169.81;2060677;28;19913;-65
2022/07/21 01:47:44;;;;;;;;;;;;;;;27.54;41.89;100159.81;2068980;28;19955;-65
2022/07/21 01:48:44;;;;;;;;;;;;;;;27.55;42.07;100161.50;2066751;28;19935;-65
2022/07/21 01:49:44;;;;;;;;;;;;;;;27.55;42.11;100166.19;2063240;28;19910;-65
2022/07/21 01:50:45;;;;;;;;;;;;;;;27.55;42.00;100164.28;2072970;28;20650;-65
2022/07/21 01:51:46;;;;;;;;;;;;;;;27.55;42.04;100163.44;2064247;28;19913;-65
2022/07/21 01:52:46;;;;;;;;;;;;;;;27.55;41.95;100164.28;2068490;28;19909;-65
2022/07/21 01:53:46;;;;;;;;;;;;;;;27.56;42.04;100156.81;2070510;28;19921;-65
2022/07/21 01:54:47;;;;;;;;;;;;;;;27.55;41.89;100157.91;2062953;28;19975;-64
2022/07/21 01:55:47;;;;;;;;;;;;;;;27.56;42.19;100162.34;2070485;28;19921;-64
2022/07/21 01:56:47;;;;;;;;;;;;;;;27.56;42.09;100162.34;2065242;28;19942;-65
2022/07/21 01:57:47;;;;;;;;;;;;;;;27.56;42.14;100156.81;2065444;28;19972;-65
2022/07/21 01:58:48;;;;;;;;;;;;;;;27.57;41.99;100158.53;2070824;28;19913;-65
2022/07/21 01:59:49;;;;;;;;;;;;;;;27.55;42.23;100158.75;2066206;28;19917;-65
2022/07/21 02:00:49;;;;;;;;;;;;;;;27.55;42.23;100155.97;2068887;28;19924;-65
2022/07/21 02:01:49;;;;;;;;;;;;;;;27.56;42.23;100156.81;2068286;28;19947;-65
2022/07/21 02:02:50;;;;;;;;;;;;;;;27.56;42.17;100152.16;2063457;28;19999;-65
2022/07/21 02:03:50;;;;;;;;;;;;;;;27.56;42.29;100145.75;2070480;28;19967;-65
2022/07/21 02:04:50;;;;;;;;;;;;;;;27.56;42.11;100154.06;2065325;28;19913;-65
2022/07/21 02:05:51;;;;;;;;;;;;;;;27.55;42.01;100152.34;2066400;28;19924;-64
2022/07/21 02:06:51;;;;;;;;;;;;;;;27.55;42.26;100152.34;2065265;28;20026;-65
2022/07/21 02:07:51;;;;;;;;;;;;;;;27.56;42.25;100156.81;2066074;28;20873;-65
2022/07/21 02:08:52;;;;;;;;;;;;;;;27.56;42.13;100145.75;2063563;28;20662;-64
2022/07/21 02:09:52;;;;;;;;;;;;;;;27.55;42.28;100155.97;2065076;28;20410;-65
2022/07/21 02:10:52;;;;;;;;;;;;;;;27.56;42.07;100156.81;2062454;28;19921;-65
2022/07/21 02:11:52;;;;;;;;;;;;;;;27.55;42.09;100152.34;2066339;28;20430;-65
2022/07/21 02:12:53;;;;;;;;;;;;;;;27.56;42.04;100156.81;2066754;28;19925;-65
2022/07/21 02:13:53;;;;;;;;;;;;;;;27.55;42.10;100144.91;2062014;28;19913;-65
2022/07/21 02:14:54;;;;;;;;;;;;;;;27.54;42.31;100153.44;2065333;28;19917;-65
2022/07/21 02:15:54;;;;;;;;;;;;;;;27.56;42.26;100145.75;2066133;28;19979;-65
2022/07/21 02:16:55;;;;;;;;;;;;;;;27.55;42.12;100155.13;2063003;28;19917;-65
2022/07/21 02:17:55;;;;;;;;;;;;;;;27.54;42.19;100153.44;2065042;28;19952;-65
2022/07/21 02:18:56;;;;;;;;;;;;;;;27.54;42.18;100147.91;2065081;28;20019;-65
2022/07/21 02:19:56;;;;;;;;;;;;;;;27.55;42.32;100149.59;2071298;28;19917;-65
2022/07/21 02:20:57;;;;;;;;;;;;;;;27.54;42.09;100158.97;2066849;28;20004;-65
2022/07/21 02:21:57;;;;;;;;;;;;;;;27.52;42.30;100155.53;2068620;28;19928;-65
2022/07/21 02:22:57;;;;;;;;;;;;;;;27.52;42.20;100161.06;2071673;28;20290;-65
2022/07/21 02:23:58;;;;;;;;;;;;;;;27.52;42.17;100156.38;2062881;28;19924;-65
2022/07/21 02:24:58;;;;;;;;;;;;;;;27.52;42.40;100152.78;2070541;28;19917;-64
2022/07/21 02:25:59;;;;;;;;;;;;;;;27.50;42.20;100158.50;2065912;28;20050;-64
2022/07/21 02:26:59;;;;;;;;;;;;;;;27.50;42.43;100157.66;2064448;28;19939;-65
2022/07/21 02:27:59;;;;;;;;;;;;;;;27.49;42.20;100153.19;2066499;28;19975;-65
2022/07/21 02:29:00;;;;;;;;;;;;;;;27.49;42.29;100155.97;2064746;28;19920;-65
2022/07/21 02:30:00;;;;;;;;;;;;;;;27.48;42.28;100152.31;2066989;28;19917;-65
2022/07/21 02:31:00;;;;;;;;;;;;;;;27.48;42.35;100157.84;2063190;28;19957;-65
2022/07/21 02:32:01;;;;;;;;;;;;;;;27.48;42.07;100154.22;2061562;28;19925;-65
2022/07/21 02:33:01;;;;;;;;;;;;;;;27.48;42.12;100154.22;2067858;28;19924;-65
2022/07/21 02:34:01;;;;;;;;;;;;;;;27.47;42.22;100153.38;2063203;28;19925;-65
2022/07/21 02:35:02;;;;;;;;;;;;;;;27.48;42.22;100155.06;2066626;28;20311;-65
2022/07/21 02:36:03;;;;;;;;;;;;;;;27.47;42.36;100152.53;2064459;28;19921;-65
2022/07/21 02:37:03;;;;;;;;;;;;;;;27.49;42.21;100150.41;2065189;28;19929;-64
2022/07/21 02:38:04;;;;;;;;;;;;;;;27.48;42.25;100154.22;2067815;28;19956;-65
2022/07/21 02:39:04;;;;;;;;;;;;;;;27.48;42.07;100155.06;2065347;28;19917;-64
2022/07/21 02:40:05;;;;;;;;;;;;;;;27.49;42.34;100155.97;2067622;28;19916;-65
2022/07/21 02:41:05;;;;;;;;;;;;;;;27.48;42.37;100149.53;2064037;28;19917;-65
2022/07/21 02:42:06;;;;;;;;;;;;;;;27.48;42.07;100148.69;2062739;28;21525;-65
2022/07/21 02:43:06;;;;;;;;;;;;;;;27.47;42.32;100142.31;2066640;28;19928;-65
2022/07/21 02:44:06;;;;;;;;;;;;;;;27.48;42.01;100148.69;2064403;28;20049;-64
2022/07/21 02:45:07;;;;;;;;;;;;;;;27.49;42.00;100144.88;2065719;28;19927;-65
2022/07/21 02:46:08;;;;;;;;;;;;;;;27.48;42.16;100145.94;2064981;28;21550;-65
2022/07/21 02:47:08;;;;;;;;;;;;;;;27.50;42.00;100152.13;2067945;28;20703;-65
2022/07/21 02:48:10;;;;;;;;;;;;;;;27.49;42.10;100134.66;2060872;28;19949;-65
2022/07/21 02:49:10;;;;;;;;;;;;;;;27.49;42.20;100144.88;2060655;28;19968;-65
2022/07/21 02:50:10;;;;;;;;;;;;;;;27.49;42.17;100142.13;2065774;28;19924;-65
2022/07/21 02:51:11;;;;;;;;;;;;;;;27.48;42.26;100141.25;2059931;28;19912;-65
2022/07/21 02:52:11;;;;;;;;;;;;;;;27.48;42.20;100134.84;2061298;28;19936;-65
2022/07/21 02:53:13;;;;;;;;;;;;;;;27.48;42.16;100132.09;2061438;28;19984;-65
2022/07/21 02:54:14;;;;;;;;;;;;;;;27.48;42.13;100132.09;2062889;28;19967;-65
2022/07/21 02:55:15;;;;;;;;;;;;;;;27.48;42.06;100134.84;2059458;28;20507;-65
2022/07/21 02:56:15;;;;;;;;;;;;;;;27.47;42.26;100133.16;2059513;28;20308;-65
2022/07/21 02:57:15;;;;;;;;;;;;;;;27.48;42.04;100143.16;2066415;28;19917;-65
2022/07/21 02:58:17;;;;;;;;;;;;;;;27.47;42.15;100141.47;2065713;28;19924;-65
2022/07/21 02:59:18;;;;;;;;;;;;;;;27.48;42.12;100145.94;2063826;28;20372;-65
2022/07/21 03:00:18;;;;;;;;;;;;;;;27.47;42.07;100141.47;2061863;28;19913;-65
2022/07/21 03:01:18;;;;;;;;;;;;;;;27.47;42.15;100141.47;2060707;28;19944;-65
2022/07/21 03:02:19;;;;;;;;;;;;;;;27.47;42.06;100141.47;2064260;28;20329;-65
2022/07/21 03:03:20;;;;;;;;;;;;;;;27.47;42.20;100153.38;2066455;28;19924;-65
2022/07/21 03:04:20;;;;;;;;;;;;;;;27.47;42.27;100147.00;2062831;28;20292;-65
2022/07/21 03:05:21;;;;;;;;;;;;;;;27.46;42.28;100140.56;2067912;28;19917;-64
2022/07/21 03:06:21;;;;;;;;;;;;;;;27.47;42.06;100149.75;2060771;28;19998;-65
2022/07/21 03:07:21;;;;;;;;;;;;;;;27.46;42.30;100151.66;2063710;28;19921;-65
2022/07/21 03:08:22;;;;;;;;;;;;;;;27.46;42.31;100145.28;2067953;28;19921;-65
2022/07/21 03:09:23;;;;;;;;;;;;;;;27.46;42.30;100142.50;2064493;28;19920;-64
2022/07/21 03:10:23;;;;;;;;;;;;;;;27.45;42.14;100138.03;2067451;28;19952;-65
2022/07/21 03:11:24;;;;;;;;;;;;;;;27.44;42.22;100141.84;2062685;28;19909;-65
2022/07/21 03:12:24;;;;;;;;;;;;;;;27.44;42.11;100147.38;2063330;28;19921;-65
2022/07/21 03:13:24;;;;;;;;;;;;;;;27.44;42.08;100150.16;2068480;28;20004;-65
2022/07/21 03:14:25;;;;;;;;;;;;;;;27.43;42.19;100142.91;2065351;28;20003;-65
2022/07/21 03:15:25;;;;;;;;;;;;;;;27.43;42.31;100148.44;2065471;28;20439;-65
2022/07/21 03:16:26;;;;;;;;;;;;;;;27.42;42.16;100144.00;2067597;28;19917;-65
2022/07/21 03:17:26;;;;;;;;;;;;;;;27.42;42.15;100139.31;2066573;28;20186;-65
2022/07/21 03:18:27;;;;;;;;;;;;;;;27.43;42.19;100145.69;2066589;28;19921;-65
2022/07/21 03:19:27;;;;;;;;;;;;;;;27.42;42.15;100144.00;2063585;28;19909;-65
2022/07/21 03:20:29;;;;;;;;;;;;;;;27.42;42.26;100144.00;2065821;28;20698;-65
2022/07/21 03:21:29;;;;;;;;;;;;;;;27.42;42.22;100144.00;2063725;28;19909;-65
2022/07/21 03:22:30;;;;;;;;;;;;;;;27.41;42.44;100147.78;2061631;28;20356;-65
2022/07/21 03:23:30;;;;;;;;;;;;;;;27.42;42.26;100144.00;2064937;28;20044;-65
2022/07/21 03:24:30;;;;;;;;;;;;;;;27.42;42.37;100141.22;2062665;28;19917;-65
2022/07/21 03:25:31;;;;;;;;;;;;;;;27.43;42.32;100145.69;2065661;28;20680;-64
2022/07/21 03:26:31;;;;;;;;;;;;;;;27.41;42.40;100145.03;2066357;28;20709;-65
2022/07/21 03:27:35;;;;;;;;;;;;;;;27.42;42.46;100147.59;2074303;28;19913;-65
2022/07/21 03:28:36;;;;;;;;;;;;;;;27.42;42.33;100155.06;2064791;28;19956;-65
2022/07/21 03:29:36;;;;;;;;;;;;;;;27.42;42.52;100150.38;2066705;28;19917;-65
2022/07/21 03:30:36;;;;;;;;;;;;;;;27.43;42.38;100154.00;2064016;28;19917;-64
2022/07/21 03:31:37;;;;;;;;;;;;;;;27.42;42.26;100146.75;2067557;28;20283;-65
2022/07/21 03:32:38;;;;;;;;;;;;;;;27.43;42.44;100151.22;2065964;28;20745;-65
2022/07/21 03:33:38;;;;;;;;;;;;;;;27.43;42.26;100148.44;2065686;28;20034;-65
2022/07/21 03:34:38;;;;;;;;;;;;;;;27.42;42.33;100149.53;2064565;28;20031;-65
2022/07/21 03:35:38;;;;;;;;;;;;;;;27.43;42.46;100154.00;2064185;28;19929;-65
2022/07/21 03:36:39;;;;;;;;;;;;;;;27.41;42.45;100148.66;2069038;28;19959;-65
2022/07/21 03:37:48;;;;;;;;;;;;;;;27.42;42.51;100152.28;2067203;28;20003;-65
2022/07/21 03:38:50;;;;;;;;;;;;;;;27.42;42.21;100149.53;2060814;28;19923;-65
2022/07/21 03:39:51;;;;;;;;;;;;;;;27.42;42.45;100146.75;2066655;28;20345;-65
2022/07/21 03:40:51;;;;;;;;;;;;;;;27.41;42.49;100147.78;2063694;28;19917;-65
2022/07/21 03:41:51;;;;;;;;;;;;;;;27.41;42.33;100147.78;2063446;28;19928;-65
2022/07/21 03:42:53;;;;;;;;;;;;;;;27.40;42.37;100137.78;2064168;28;20314;-65
2022/07/21 03:43:53;;;;;;;;;;;;;;;27.40;42.34;100140.56;2069343;28;19909;-65
2022/07/21 03:44:53;;;;;;;;;;;;;;;27.39;42.54;100144.38;2066649;28;19959;-65
2022/07/21 03:45:54;;;;;;;;;;;;;;;27.40;42.39;100148.88;2069180;28;19940;-65
2022/07/21 03:46:54;;;;;;;;;;;;;;;27.40;42.30;100138.66;2061034;28;19913;-65
2022/07/21 03:47:54;;;;;;;;;;;;;;;27.40;42.24;100154.41;2064195;28;19917;-65
2022/07/21 03:48:55;;;;;;;;;;;;;;;27.40;42.55;100146.09;2061773;28;19910;-65
2022/07/21 03:49:55;;;;;;;;;;;;;;;27.40;42.46;100148.88;2063311;28;19983;-65
2022/07/21 03:50:55;;;;;;;;;;;;;;;27.39;42.49;100149.91;2065549;28;19909;-65
2022/07/21 03:51:55;;;;;;;;;;;;;;;27.40;42.52;100151.63;2067239;28;19971;-65
2022/07/21 03:52:56;;;;;;;;;;;;;;;27.39;42.35;100144.38;2067603;28;19913;-65
2022/07/21 03:53:59;;;;;;;;;;;;;;;27.39;42.39;100144.38;2067665;28;19917;-65
2022/07/21 03:55:08;;;;;;;;;;;;;;;27.38;42.54;100148.22;2061511;28;19921;-65
2022/07/21 03:56:08;;;;;;;;;;;;;;;27.38;42.33;100153.75;2066485;28;19917;-65
2022/07/21 03:57:08;;;;;;;;;;;;;;;27.38;42.31;100159.28;2065343;28;19949;-65
2022/07/21 03:58:09;;;;;;;;;;;;;;;27.38;42.26;100153.75;2059914;28;19913;-65
2022/07/21 03:59:09;;;;;;;;;;;;;;;27.38;42.43;100153.75;2065873;28;19917;-65
2022/07/21 04:00:11;;;;;;;;;;;;;;;27.38;42.40;100159.28;2067036;28;19971;-65
2022/07/21 04:01:11;;;;;;;;;;;;;;;27.37;42.60;100158.44;2065222;28;19921;-65
2022/07/21 04:02:12;;;;;;;;;;;;;;;27.36;42.36;100154.81;2063809;28;19921;-65
2022/07/21 04:03:12;;;;;;;;;;;;;;;27.36;42.32;100157.59;2066315;28;19924;-65
2022/07/21 04:04:13;;;;;;;;;;;;;;;27.36;42.42;100156.72;2071627;28;19916;-65
2022/07/21 04:05:13;;;;;;;;;;;;;;;27.35;42.41;100155.84;2063216;28;19917;-64
2022/07/21 04:06:14;;;;;;;;;;;;;;;27.35;42.25;100153.09;2065656;28;19921;-64
2022/07/21 04:07:14;;;;;;;;;;;;;;;27.34;42.26;100154.16;2064210;28;19909;-65
2022/07/21 04:08:14;;;;;;;;;;;;;;;27.34;42.52;100158.81;2074078;28;19915;-65
2022/07/21 04:09:17;;;;;;;;;;;;;;;27.34;42.26;100165.22;2062430;28;19914;-64
2022/07/21 04:10:18;;;;;;;;;;;;;;;27.34;42.55;100151.41;2063425;28;20719;-65
2022/07/21 04:11:19;;;;;;;;;;;;;;;27.34;42.47;100159.69;2063387;28;20221;-65
2022/07/21 04:12:19;;;;;;;;;;;;;;;27.34;42.54;100165.22;2069695;28;19917;-65
2022/07/21 04:13:19;;;;;;;;;;;;;;;27.34;42.34;100156.03;2061986;28;19944;-65
2022/07/21 04:14:20;;;;;;;;;;;;;;;27.33;42.67;100155.19;2061184;28;19924;-65
2022/07/21 04:15:20;;;;;;;;;;;;;;;27.32;42.44;100155.44;2063383;28;19994;-64
2022/07/21 04:16:20;;;;;;;;;;;;;;;27.32;42.32;100161.81;2064653;28;19917;-64
2022/07/21 04:17:21;;;;;;;;;;;;;;;27.32;42.44;100156.28;2064867;28;20466;-65
2022/07/21 04:18:21;;;;;;;;;;;;;;;27.32;42.64;100156.28;2067725;28;19960;-65
2022/07/21 04:19:22;;;;;;;;;;;;;;;27.32;42.63;100158.19;2065349;28;19928;-65
2022/07/21 04:20:22;;;;;;;;;;;;;;;27.32;42.64;100161.81;2063154;28;20403;-65
2022/07/21 04:21:23;;;;;;;;;;;;;;;27.32;42.56;100161.81;2062970;28;19917;-65
2022/07/21 04:22:23;;;;;;;;;;;;;;;27.31;42.51;100160.09;2064739;28;20422;-65
2022/07/21 04:23:24;;;;;;;;;;;;;;;27.32;42.63;100156.28;2067574;28;19917;-65
2022/07/21 04:24:24;;;;;;;;;;;;;;;27.32;42.66;100153.50;2067462;28;20393;-65
2022/07/21 04:25:24;;;;;;;;;;;;;;;27.32;42.30;100156.28;2067752;28;20632;-65
2022/07/21 04:26:25;;;;;;;;;;;;;;;27.32;42.35;100160.97;2061418;28;20450;-65
2022/07/21 04:27:25;;;;;;;;;;;;;;;27.32;42.34;100161.81;2066937;28;19919;-65
2022/07/21 04:28:25;;;;;;;;;;;;;;;27.32;42.57;100156.28;2065864;28;19924;-65
2022/07/21 04:29:26;;;;;;;;;;;;;;;27.31;42.65;100160.09;2061453;28;19921;-65
2022/07/21 04:30:27;;;;;;;;;;;;;;;27.31;42.47;100157.31;2066589;28;19913;-64
2022/07/21 04:31:27;;;;;;;;;;;;;;;27.32;42.44;100155.44;2068031;28;19928;-65
2022/07/21 04:32:27;;;;;;;;;;;;;;;27.31;42.51;100162.84;2067597;28;20003;-65
2022/07/21 04:33:28;;;;;;;;;;;;;;;27.31;42.43;100160.09;2067693;28;19913;-65
2022/07/21 04:34:28;;;;;;;;;;;;;;;27.31;42.44;100164.75;2065388;28;19925;-65
2022/07/21 04:35:29;;;;;;;;;;;;;;;27.31;42.37;100159.22;2060199;28;20027;-65
2022/07/21 04:36:29;;;;;;;;;;;;;;;27.29;42.60;100165.00;2060809;28;19925;-65
2022/07/21 04:37:29;;;;;;;;;;;;;;;27.30;42.60;100169.44;2062694;28;19960;-65
2022/07/21 04:38:29;;;;;;;;;;;;;;;27.31;42.61;100171.16;2062483;28;19952;-65
2022/07/21 04:39:30;;;;;;;;;;;;;;;27.30;42.67;100163.06;2064274;28;20007;-65
2022/07/21 04:40:30;;;;;;;;;;;;;;;27.30;42.62;100168.59;2062122;28;19993;-65
2022/07/21 04:41:32;;;;;;;;;;;;;;;27.30;42.52;100168.59;2063502;28;19918;-65
2022/07/21 04:42:32;;;;;;;;;;;;;;;27.30;42.59;100174.13;2065001;28;20675;-65
2022/07/21 04:43:32;;;;;;;;;;;;;;;27.29;42.53;100173.28;2062035;28;19972;-65
2022/07/21 04:44:33;;;;;;;;;;;;;;;27.29;42.66;100166.88;2064612;28;19987;-65
2022/07/21 04:45:33;;;;;;;;;;;;;;;27.28;42.56;100166.03;2062220;28;20015;-65
2022/07/21 04:46:33;;;;;;;;;;;;;;;27.28;42.70;100174.34;2063146;28;20313;-65
2022/07/21 04:47:41;;;;;;;;;;;;;;;27.27;42.63;100169.88;2065139;28;20367;-65
2022/07/21 04:48:41;;;;;;;;;;;;;;;27.28;42.53;100176.25;2061055;28;19917;-66
2022/07/21 04:49:42;;;;;;;;;;;;;;;27.26;42.76;100168.13;2063888;28;20009;-66
2022/07/21 04:50:42;;;;;;;;;;;;;;;27.27;42.60;100167.09;2064575;28;20630;-65
2022/07/21 04:51:42;;;;;;;;;;;;;;;27.26;42.66;100173.66;2061962;28;19918;-66
2022/07/21 04:52:42;;;;;;;;;;;;;;;27.27;42.59;100175.41;2064262;28;19917;-66
2022/07/21 04:53:43;;;;;;;;;;;;;;;27.25;42.61;100171.97;2067666;28;19913;-66
2022/07/21 04:54:43;;;;;;;;;;;;;;;27.26;42.76;100176.44;2065169;28;19924;-65
2022/07/21 04:55:43;;;;;;;;;;;;;;;27.27;42.69;100177.31;2066002;28;19927;-66
2022/07/21 04:56:44;;;;;;;;;;;;;;;27.26;42.69;100173.66;2062176;28;20629;-66
2022/07/21 04:57:46;;;;;;;;;;;;;;;27.26;42.63;100184.75;2062531;28;19917;-66
2022/07/21 04:58:47;;;;;;;;;;;;;;;27.27;42.78;100183.72;2064275;28;19979;-66
2022/07/21 04:59:47;;;;;;;;;;;;;;;27.26;42.62;100187.50;2064355;28;19984;-66
2022/07/21 05:00:47;;;;;;;;;;;;;;;27.27;42.81;100185.63;2067323;28;19971;-65
2022/07/21 05:01:47;;;;;;;;;;;;;;;27.26;42.64;100184.75;2062625;28;19913;-66
2022/07/21 05:02:48;;;;;;;;;;;;;;;27.27;42.74;100180.94;2064509;28;19992;-66
2022/07/21 05:03:48;;;;;;;;;;;;;;;27.27;42.62;100183.72;2065715;28;19921;-66
2022/07/21 05:04:49;;;;;;;;;;;;;;;27.26;42.68;100179.22;2065409;28;20004;-65
2022/07/21 05:05:49;;;;;;;;;;;;;;;27.26;42.59;100181.97;2065373;28;19920;-65
2022/07/21 05:06:49;;;;;;;;;;;;;;;27.26;42.87;100184.75;2063685;28;19917;-66
2022/07/21 05:07:50;;;;;;;;;;;;;;;27.26;42.99;100181.97;2063001;28;19923;-66
2022/07/21 05:08:50;;;;;;;;;;;;;;;27.25;42.78;100183.03;2065526;28;19956;-66
2022/07/21 05:09:50;;;;;;;;;;;;;;;27.26;42.81;100184.75;2060629;28;20101;-66
2022/07/21 05:10:51;;;;;;;;;;;;;;;27.25;42.72;100177.50;2065973;28;19933;-66
2022/07/21 05:11:51;;;;;;;;;;;;;;;27.25;42.91;100183.03;2066278;28;19917;-66
2022/07/21 05:12:51;;;;;;;;;;;;;;;27.25;42.69;100177.50;2063927;28;19971;-66